createdAt,value
2023-04-25T00:00:45.780Z,1002.03
2023-04-25T00:01:45.745Z,1002.01
2023-04-25T00:02:45.890Z,1002.00
2023-04-25T00:03:46.016Z,1001.99
2023-04-25T00:04:46.136Z,1001.99
2023-04-25T00:05:45.723Z,1001.98
2023-04-25T00:06:45.717Z,1001.99
2023-04-25T00:07:45.722Z,1001.98
2023-04-25T00:08:45.695Z,1001.98
2023-04-25T00:09:45.670Z,1001.99
2023-04-25T00:10:45.681Z,1001.97
2023-04-25T00:11:45.670Z,1002.00
2023-04-25T00:12:45.638Z,1002.02
2023-04-25T00:13:45.651Z,1002.02
2023-04-25T00:14:45.621Z,1002.01
2023-04-25T00:15:45.616Z,1002.01
2023-04-25T00:16:45.598Z,1002.02
2023-04-25T00:17:45.597Z,1002.01
2023-04-25T00:18:45.581Z,1002.02
2023-04-25T00:19:45.571Z,1002.03
2023-04-25T00:20:45.569Z,1002.04
2023-04-25T00:21:45.530Z,1002.03
2023-04-25T00:22:45.578Z,1002.04
2023-04-25T00:23:45.516Z,1002.05
2023-04-25T00:24:45.533Z,1002.07
2023-04-25T00:25:45.499Z,1002.06
2023-04-25T00:26:45.527Z,1002.07
2023-04-25T00:27:45.474Z,1002.08
2023-04-25T00:28:45.492Z,1002.09
2023-04-25T00:29:45.456Z,1002.10
2023-04-25T00:30:45.487Z,1002.09
2023-04-25T00:31:45.506Z,1002.10
2023-04-25T00:32:45.547Z,1002.10
2023-04-25T00:33:45.409Z,1002.12
2023-04-25T00:34:45.431Z,1002.10
2023-04-25T00:35:45.402Z,1002.10
2023-04-25T00:36:45.407Z,1002.11
2023-04-25T00:37:45.382Z,1002.09
2023-04-25T00:38:45.415Z,1002.09
2023-04-25T00:39:45.346Z,1002.10
2023-04-25T00:40:45.354Z,1002.10
2023-04-25T00:41:45.318Z,1002.12
2023-04-25T00:42:45.336Z,1002.10
2023-04-25T00:43:45.320Z,1002.09
2023-04-25T00:44:45.316Z,1002.09
2023-04-25T00:45:45.280Z,1002.08
2023-04-25T00:46:45.345Z,1002.09
2023-04-25T00:47:45.280Z,1002.10
2023-04-25T00:48:45.273Z,1002.11
2023-04-25T00:49:45.267Z,1002.10
2023-04-25T00:50:45.248Z,1002.09
2023-04-25T00:51:45.223Z,1002.08
2023-04-25T00:52:45.250Z,1002.05
2023-04-25T00:53:45.196Z,1002.05
2023-04-25T00:54:45.215Z,1002.04
2023-04-25T00:55:45.189Z,1002.03
2023-04-25T00:56:45.208Z,1002.04
2023-04-25T00:57:45.165Z,1002.05
2023-04-25T00:58:45.186Z,1002.05
2023-04-25T00:59:45.131Z,1002.02
2023-04-25T01:00:45.177Z,1002.01
2023-04-25T01:01:45.382Z,1002.00
2023-04-25T01:02:45.230Z,1002.03
2023-04-25T01:03:45.283Z,1002.01
2023-04-25T01:04:45.084Z,1002.00
2023-04-25T01:05:45.092Z,1002.01
2023-04-25T01:06:45.073Z,1002.01
2023-04-25T01:07:45.114Z,1002.00
2023-04-25T01:08:45.047Z,1002.00
2023-04-25T01:09:45.067Z,1001.97
2023-04-25T01:10:45.023Z,1001.99
2023-04-25T01:11:45.073Z,1001.97
2023-04-25T01:12:45.009Z,1001.97
2023-04-25T01:13:45.057Z,1001.97
2023-04-25T01:14:44.992Z,1001.97
2023-04-25T01:15:45.001Z,1001.97
2023-04-25T01:16:45.016Z,1001.98
2023-04-25T01:17:44.992Z,1001.98
2023-04-25T01:18:44.942Z,1001.99
2023-04-25T01:19:44.973Z,1001.99
2023-04-25T01:20:44.961Z,1002.01
2023-04-25T01:21:44.933Z,1002.02
2023-04-25T01:22:44.917Z,1002.02
2023-04-25T01:23:44.922Z,1002.04
2023-04-25T01:24:44.875Z,1002.02
2023-04-25T01:25:44.915Z,1002.04
2023-04-25T01:26:44.857Z,1002.04
2023-04-25T01:27:44.882Z,1002.04
2023-04-25T01:28:44.840Z,1002.01
2023-04-25T01:29:44.846Z,1002.02
2023-04-25T01:30:44.820Z,1002.02
2023-04-25T01:31:44.846Z,1002.03
2023-04-25T01:32:44.831Z,1002.06
2023-04-25T01:33:44.820Z,1002.02
2023-04-25T01:34:44.781Z,1002.04
2023-04-25T01:35:44.792Z,1002.06
2023-04-25T01:36:44.771Z,1002.03
2023-04-25T01:37:44.783Z,1002.04
2023-04-25T01:38:44.740Z,1002.03
2023-04-25T01:39:44.738Z,1002.04
2023-04-25T01:40:44.716Z,1002.02
2023-04-25T01:41:44.724Z,1002.03
2023-04-25T01:42:44.712Z,1002.02
2023-04-25T01:43:44.725Z,1002.03
2023-04-25T01:44:44.690Z,1002.02
2023-04-25T01:45:44.713Z,1002.03
2023-04-25T01:46:44.652Z,1002.05
2023-04-25T01:47:44.826Z,1002.07
2023-04-25T01:48:44.631Z,1002.06
2023-04-25T01:49:44.688Z,1002.07
2023-04-25T01:50:44.610Z,1002.09
2023-04-25T01:51:44.627Z,1002.09
2023-04-25T01:52:44.585Z,1002.12
2023-04-25T01:53:44.604Z,1002.10
2023-04-25T01:54:44.567Z,1002.14
2023-04-25T01:55:44.634Z,1002.15
2023-04-25T01:56:44.564Z,1002.15
2023-04-25T01:57:44.585Z,1002.18
2023-04-25T01:58:44.539Z,1002.20
2023-04-25T01:59:44.547Z,1002.22
2023-04-25T02:00:44.507Z,1002.23
2023-04-25T02:01:44.568Z,1002.24
2023-04-25T02:02:44.644Z,1002.24
2023-04-25T02:03:44.640Z,1002.25
2023-04-25T02:04:44.630Z,1002.27
2023-04-25T02:05:44.475Z,1002.26
2023-04-25T02:06:44.481Z,1002.26
2023-04-25T02:07:44.467Z,1002.27
2023-04-25T02:08:44.428Z,1002.26
2023-04-25T02:09:44.436Z,1002.27
2023-04-25T02:10:44.400Z,1002.26
2023-04-25T02:11:44.416Z,1002.25
2023-04-25T02:12:44.384Z,1002.25
2023-04-25T02:13:44.454Z,1002.25
2023-04-25T02:14:44.366Z,1002.26
2023-04-25T02:15:44.452Z,1002.27
2023-04-25T02:16:44.429Z,1002.28
2023-04-25T02:17:44.381Z,1002.28
2023-04-25T02:18:44.320Z,1002.29
2023-04-25T02:19:44.365Z,1002.29
2023-04-25T02:20:44.312Z,1002.28
2023-04-25T02:21:44.324Z,1002.30
2023-04-25T02:22:44.281Z,1002.31
2023-04-25T02:23:44.291Z,1002.31
2023-04-25T02:24:44.284Z,1002.30
2023-04-25T02:25:44.293Z,1002.30
2023-04-25T02:26:44.242Z,1002.29
2023-04-25T02:27:44.266Z,1002.29
2023-04-25T02:28:44.275Z,1002.30
2023-04-25T02:29:44.233Z,1002.28
2023-04-25T02:30:44.196Z,1002.32
2023-04-25T02:31:44.269Z,1002.31
2023-04-25T02:32:44.268Z,1002.31
2023-04-25T02:33:44.209Z,1002.32
2023-04-25T02:34:44.162Z,1002.34
2023-04-25T02:35:44.184Z,1002.35
2023-04-25T02:36:44.166Z,1002.36
2023-04-25T02:37:44.182Z,1002.35
2023-04-25T02:38:44.158Z,1002.35
2023-04-25T02:39:44.128Z,1002.36
2023-04-25T02:40:44.140Z,1002.36
2023-04-25T02:41:44.135Z,1002.39
2023-04-25T02:42:44.168Z,1002.34
2023-04-25T02:43:44.122Z,1002.34
2023-04-25T02:44:44.164Z,1002.34
2023-04-25T02:45:44.197Z,1002.33
2023-04-25T02:46:44.101Z,1002.35
2023-04-25T02:47:44.179Z,1002.33
2023-04-25T02:48:44.018Z,1002.36
2023-04-25T02:49:44.055Z,1002.38
2023-04-25T02:50:44.023Z,1002.37
2023-04-25T02:51:44.026Z,1002.37
2023-04-25T02:52:43.977Z,1002.36
2023-04-25T02:53:43.988Z,1002.37
2023-04-25T02:54:43.951Z,1002.36
2023-04-25T02:55:43.986Z,1002.37
2023-04-25T02:56:43.932Z,1002.36
2023-04-25T02:57:43.943Z,1002.38
2023-04-25T02:58:43.926Z,1002.37
2023-04-25T02:59:43.928Z,1002.40
2023-04-25T03:00:43.911Z,1002.41
2023-04-25T03:01:43.932Z,1002.42
2023-04-25T03:02:44.022Z,1002.42
2023-04-25T03:03:43.963Z,1002.43
2023-04-25T03:04:43.910Z,1002.43
2023-04-25T03:05:43.867Z,1002.44
2023-04-25T03:06:43.840Z,1002.45
2023-04-25T03:07:43.877Z,1002.45
2023-04-25T03:08:43.854Z,1002.45
2023-04-25T03:09:43.853Z,1002.45
2023-04-25T03:10:43.812Z,1002.47
2023-04-25T03:11:43.835Z,1002.47
2023-04-25T03:12:43.790Z,1002.47
2023-04-25T03:13:43.805Z,1002.49
2023-04-25T03:14:43.769Z,1002.49
2023-04-25T03:15:43.774Z,1002.53
2023-04-25T03:16:43.749Z,1002.53
2023-04-25T03:17:43.828Z,1002.54
2023-04-25T03:18:43.724Z,1002.54
2023-04-25T03:19:43.771Z,1002.56
2023-04-25T03:20:43.686Z,1002.56
2023-04-25T03:21:43.696Z,1002.56
2023-04-25T03:22:43.669Z,1002.59
2023-04-25T03:23:43.681Z,1002.56
2023-04-25T03:24:43.652Z,1002.58
2023-04-25T03:25:43.680Z,1002.58
2023-04-25T03:26:43.647Z,1002.59
2023-04-25T03:27:43.642Z,1002.59
2023-04-25T03:28:43.671Z,1002.61
2023-04-25T03:29:43.603Z,1002.60
2023-04-25T03:30:43.616Z,1002.61
2023-04-25T03:31:43.634Z,1002.64
2023-04-25T03:32:43.610Z,1002.65
2023-04-25T03:33:43.553Z,1002.66
2023-04-25T03:34:43.568Z,1002.66
2023-04-25T03:35:43.544Z,1002.68
2023-04-25T03:36:43.554Z,1002.67
2023-04-25T03:37:43.531Z,1002.69
2023-04-25T03:38:43.520Z,1002.68
2023-04-25T03:39:43.487Z,1002.69
2023-04-25T03:40:43.505Z,1002.69
2023-04-25T03:41:43.473Z,1002.70
2023-04-25T03:42:45.011Z,1002.72
2023-04-25T03:43:43.474Z,1002.72
2023-04-25T03:44:43.461Z,1002.73
2023-04-25T03:45:43.463Z,1002.76
2023-04-25T03:46:43.441Z,1002.76
2023-04-25T03:47:43.455Z,1002.78
2023-04-25T03:48:43.417Z,1002.77
2023-04-25T03:49:43.543Z,1002.77
2023-04-25T03:50:43.417Z,1002.76
2023-04-25T03:51:43.368Z,1002.76
2023-04-25T03:52:43.379Z,1002.78
2023-04-25T03:53:43.347Z,1002.77
2023-04-25T03:54:43.367Z,1002.79
2023-04-25T03:55:43.682Z,1002.81
2023-04-25T03:56:43.346Z,1002.82
2023-04-25T03:57:43.309Z,1002.84
2023-04-25T03:58:43.351Z,1002.85
2023-04-25T03:59:43.323Z,1002.85
2023-04-25T04:00:43.318Z,1002.87
2023-04-25T04:01:43.294Z,1002.86
2023-04-25T04:02:45.332Z,1002.87
2023-04-25T04:03:43.368Z,1002.86
2023-04-25T04:04:43.494Z,1002.87
2023-04-25T04:05:43.291Z,1002.88
2023-04-25T04:06:43.299Z,1002.88
2023-04-25T04:07:43.228Z,1002.89
2023-04-25T04:08:43.227Z,1002.89
2023-04-25T04:09:43.192Z,1002.92
2023-04-25T04:10:43.214Z,1002.92
2023-04-25T04:11:43.169Z,1002.93
2023-04-25T04:12:43.183Z,1002.94
2023-04-25T04:13:43.165Z,1002.93
2023-04-25T04:14:43.161Z,1002.96
2023-04-25T04:15:43.169Z,1002.97
2023-04-25T04:16:43.143Z,1003.00
2023-04-25T04:17:43.161Z,1003.00
2023-04-25T04:18:43.125Z,1003.01
2023-04-25T04:19:43.097Z,1003.02
2023-04-25T04:20:43.107Z,1003.03
2023-04-25T04:21:43.089Z,1003.04
2023-04-25T04:22:43.100Z,1003.04
2023-04-25T04:23:43.056Z,1003.04
2023-04-25T04:24:43.063Z,1003.05
2023-04-25T04:25:43.037Z,1003.04
2023-04-25T04:26:43.052Z,1003.06
2023-04-25T04:27:43.005Z,1003.06
2023-04-25T04:28:43.023Z,1003.09
2023-04-25T04:29:42.998Z,1003.09
2023-04-25T04:30:43.009Z,1003.09
2023-04-25T04:31:43.054Z,1003.09
2023-04-25T04:32:43.017Z,1003.10
2023-04-25T04:33:42.944Z,1003.10
2023-04-25T04:34:42.968Z,1003.10
2023-04-25T04:35:42.923Z,1003.10
2023-04-25T04:36:42.938Z,1003.10
2023-04-25T04:37:42.909Z,1003.11
2023-04-25T04:38:42.909Z,1003.11
2023-04-25T04:39:42.884Z,1003.11
2023-04-25T04:40:42.919Z,1003.13
2023-04-25T04:41:42.861Z,1003.15
2023-04-25T04:42:42.916Z,1003.17
2023-04-25T04:43:42.865Z,1003.19
2023-04-25T04:44:42.849Z,1003.20
2023-04-25T04:45:42.837Z,1003.20
2023-04-25T04:46:43.081Z,1003.21
2023-04-25T04:47:42.912Z,1003.22
2023-04-25T04:48:42.805Z,1003.21
2023-04-25T04:49:42.818Z,1003.20
2023-04-25T04:50:42.783Z,1003.23
2023-04-25T04:51:42.765Z,1003.24
2023-04-25T04:52:42.773Z,1003.28
2023-04-25T04:53:42.730Z,1003.30
2023-04-25T04:54:42.744Z,1003.34
2023-04-25T04:55:42.737Z,1003.35
2023-04-25T04:56:42.734Z,1003.36
2023-04-25T04:57:42.696Z,1003.40
2023-04-25T04:58:42.717Z,1003.42
2023-04-25T04:59:42.674Z,1003.43
2023-04-25T05:00:42.725Z,1003.43
2023-04-25T05:01:42.687Z,1003.44
2023-04-25T05:02:42.777Z,1003.45
2023-04-25T05:03:42.764Z,1003.47
2023-04-25T05:04:42.707Z,1003.47
2023-04-25T05:05:42.610Z,1003.49
2023-04-25T05:06:42.653Z,1003.49
2023-04-25T05:07:42.629Z,1003.52
2023-04-25T05:08:42.601Z,1003.53
2023-04-25T05:09:42.579Z,1003.58
2023-04-25T05:10:42.583Z,1003.59
2023-04-25T05:11:42.557Z,1003.59
2023-04-25T05:12:42.565Z,1003.60
2023-04-25T05:13:42.560Z,1003.60
2023-04-25T05:14:42.542Z,1003.61
2023-04-25T05:15:42.508Z,1003.61
2023-04-25T05:16:42.537Z,1003.62
2023-04-25T05:17:42.500Z,1003.62
2023-04-25T05:18:42.490Z,1003.63
2023-04-25T05:19:42.515Z,1003.62
2023-04-25T05:20:42.455Z,1003.63
2023-04-25T05:21:42.470Z,1003.64
2023-04-25T05:22:42.436Z,1003.65
2023-04-25T05:23:42.452Z,1003.67
2023-04-25T05:24:42.424Z,1003.68
2023-04-25T05:25:42.443Z,1003.69
2023-04-25T05:26:42.396Z,1003.70
2023-04-25T05:27:42.480Z,1003.70
2023-04-25T05:28:42.372Z,1003.71
2023-04-25T05:29:42.401Z,1003.71
2023-04-25T05:30:42.362Z,1003.73
2023-04-25T05:31:42.422Z,1003.73
2023-04-25T05:32:42.363Z,1003.74
2023-04-25T05:33:42.348Z,1003.76
2023-04-25T05:34:42.375Z,1003.78
2023-04-25T05:35:42.326Z,1003.79
2023-04-25T05:36:42.305Z,1003.80
2023-04-25T05:37:42.340Z,1003.82
2023-04-25T05:38:42.271Z,1003.81
2023-04-25T05:39:42.313Z,1003.81
2023-04-25T05:40:42.251Z,1003.81
2023-04-25T05:41:42.278Z,1003.82
2023-04-25T05:42:42.229Z,1003.81
2023-04-25T05:43:42.265Z,1003.81
2023-04-25T05:44:42.210Z,1003.83
2023-04-25T05:45:42.299Z,1003.84
2023-04-25T05:46:42.202Z,1003.87
2023-04-25T05:47:42.309Z,1003.87
2023-04-25T05:48:42.188Z,1003.88
2023-04-25T05:49:42.198Z,1003.90
2023-04-25T05:50:42.144Z,1003.92
2023-04-25T05:51:42.175Z,1003.93
2023-04-25T05:52:42.125Z,1003.93
2023-04-25T05:53:42.135Z,1003.95
2023-04-25T05:54:42.117Z,1003.96
2023-04-25T05:55:42.138Z,1003.97
2023-04-25T05:56:42.088Z,1003.97
2023-04-25T05:57:42.099Z,1003.99
2023-04-25T05:58:42.065Z,1004.01
2023-04-25T05:59:42.075Z,1004.00
2023-04-25T06:00:42.034Z,1004.01
2023-04-25T06:01:42.075Z,1004.00
2023-04-25T06:02:42.198Z,1004.01
2023-04-25T06:03:42.225Z,1004.01
2023-04-25T06:04:42.158Z,1004.01
2023-04-25T06:05:42.036Z,1004.02
2023-04-25T06:06:41.986Z,1004.03
2023-04-25T06:07:42.009Z,1004.04
2023-04-25T06:08:41.959Z,1004.03
2023-04-25T06:09:41.970Z,1004.04
2023-04-25T06:10:41.934Z,1004.05
2023-04-25T06:11:41.946Z,1004.04
2023-04-25T06:12:41.933Z,1004.07
2023-04-25T06:13:41.959Z,1004.06
2023-04-25T06:14:41.906Z,1004.06
2023-04-25T06:15:41.978Z,1004.09
2023-04-25T06:16:41.876Z,1004.08
2023-04-25T06:17:41.939Z,1004.10
2023-04-25T06:18:41.855Z,1004.13
2023-04-25T06:19:41.906Z,1004.14
2023-04-25T06:20:41.834Z,1004.15
2023-04-25T06:21:41.842Z,1004.16
2023-04-25T06:22:41.817Z,1004.18
2023-04-25T06:23:41.822Z,1004.22
2023-04-25T06:24:41.792Z,1004.22
2023-04-25T06:25:41.873Z,1004.24
2023-04-25T06:26:41.777Z,1004.23
2023-04-25T06:27:41.787Z,1004.23
2023-04-25T06:28:41.742Z,1004.22
2023-04-25T06:29:41.759Z,1004.24
2023-04-25T06:30:41.724Z,1004.24
2023-04-25T06:31:41.802Z,1004.27
2023-04-25T06:32:41.721Z,1004.28
2023-04-25T06:33:41.735Z,1004.27
2023-04-25T06:34:41.706Z,1004.29
2023-04-25T06:35:41.764Z,1004.29
2023-04-25T06:36:41.672Z,1004.31
2023-04-25T06:37:41.703Z,1004.32
2023-04-25T06:38:41.656Z,1004.33
2023-04-25T06:39:41.658Z,1004.34
2023-04-25T06:40:41.621Z,1004.31
2023-04-25T06:41:41.633Z,1004.33
2023-04-25T06:42:41.609Z,1004.36
2023-04-25T06:43:41.771Z,1004.38
2023-04-25T06:44:41.588Z,1004.40
2023-04-25T06:45:41.635Z,1004.42
2023-04-25T06:46:41.596Z,1004.41
2023-04-25T06:47:41.645Z,1004.43
2023-04-25T06:48:41.546Z,1004.44
2023-04-25T06:49:41.579Z,1004.43
2023-04-25T06:50:41.525Z,1004.41
2023-04-25T06:51:41.538Z,1004.41
2023-04-25T06:52:41.501Z,1004.40
2023-04-25T06:53:41.513Z,1004.37
2023-04-25T06:54:41.491Z,1004.37
2023-04-25T06:55:41.514Z,1004.39
2023-04-25T06:56:41.455Z,1004.40
2023-04-25T06:57:41.486Z,1004.43
2023-04-25T06:58:41.446Z,1004.48
2023-04-25T06:59:41.455Z,1004.48
2023-04-25T07:00:41.508Z,1004.47
2023-04-25T07:01:41.446Z,1004.46
2023-04-25T07:02:41.492Z,1004.45
2023-04-25T07:03:41.505Z,1004.44
2023-04-25T07:04:41.512Z,1004.44
2023-04-25T07:05:41.388Z,1004.45
2023-04-25T07:06:41.386Z,1004.46
2023-04-25T07:07:41.404Z,1004.48
2023-04-25T07:08:41.348Z,1004.52
2023-04-25T07:09:41.356Z,1004.53
2023-04-25T07:10:41.331Z,1004.52
2023-04-25T07:11:41.334Z,1004.53
2023-04-25T07:12:41.298Z,1004.51
2023-04-25T07:13:41.352Z,1004.51
2023-04-25T07:14:41.275Z,1004.51
2023-04-25T07:15:41.292Z,1004.52
2023-04-25T07:16:41.274Z,1004.54
2023-04-25T07:17:41.337Z,1004.53
2023-04-25T07:18:41.253Z,1004.54
2023-04-25T07:19:41.274Z,1004.54
2023-04-25T07:20:41.221Z,1004.57
2023-04-25T07:21:41.240Z,1004.54
2023-04-25T07:22:41.191Z,1004.55
2023-04-25T07:23:41.216Z,1004.55
2023-04-25T07:24:41.178Z,1004.58
2023-04-25T07:25:41.200Z,1004.58
2023-04-25T07:26:41.166Z,1004.59
2023-04-25T07:27:41.169Z,1004.59
2023-04-25T07:28:41.136Z,1004.59
2023-04-25T07:29:41.153Z,1004.61
2023-04-25T07:30:41.119Z,1004.60
2023-04-25T07:31:41.776Z,1004.59
2023-04-25T07:32:41.131Z,1004.59
2023-04-25T07:33:41.111Z,1004.59
2023-04-25T07:34:41.094Z,1004.59
2023-04-25T07:35:41.087Z,1004.56
2023-04-25T07:36:41.043Z,1004.57
2023-04-25T07:37:41.096Z,1004.62
2023-04-25T07:38:41.031Z,1004.63
2023-04-25T07:39:41.183Z,1004.62
2023-04-25T07:40:41.016Z,1004.62
2023-04-25T07:41:41.021Z,1004.61
2023-04-25T07:42:41.040Z,1004.61
2023-04-25T07:43:41.021Z,1004.62
2023-04-25T07:44:40.962Z,1004.64
2023-04-25T07:45:40.995Z,1004.66
2023-04-25T07:46:40.953Z,1004.69
2023-04-25T07:47:40.994Z,1004.71
2023-04-25T07:48:40.922Z,1004.73
2023-04-25T07:49:41.048Z,1004.69
2023-04-25T07:50:40.924Z,1004.68
2023-04-25T07:51:41.473Z,1004.70
2023-04-25T07:52:40.876Z,1004.74
2023-04-25T07:53:40.888Z,1004.74
2023-04-25T07:54:40.858Z,1004.76
2023-04-25T07:55:40.893Z,1004.76
2023-04-25T07:56:51.610Z,1004.74
2023-04-25T07:57:40.850Z,1004.78
2023-04-25T07:58:40.811Z,1004.80
2023-04-25T07:59:40.833Z,1004.78
2023-04-25T08:00:40.792Z,1004.79
2023-04-25T08:01:40.828Z,1004.83
2023-04-25T08:02:40.861Z,1004.87
2023-04-25T08:03:41.082Z,1004.84
2023-04-25T08:04:41.039Z,1004.84
2023-04-25T08:05:40.830Z,1004.85
2023-04-25T08:06:40.824Z,1004.89
2023-04-25T08:07:40.765Z,1004.90
2023-04-25T08:08:40.708Z,1004.92
2023-04-25T08:09:40.724Z,1004.93
2023-04-25T08:10:40.702Z,1004.94
2023-04-25T08:11:40.715Z,1004.90
2023-04-25T08:12:40.664Z,1004.92
2023-04-25T08:13:40.723Z,1004.89
2023-04-25T08:14:40.666Z,1004.95
2023-04-25T08:15:41.495Z,1004.98
2023-04-25T08:16:40.628Z,1005.00
2023-04-25T08:17:40.651Z,1005.02
2023-04-25T08:18:40.622Z,1005.01
2023-04-25T08:19:40.655Z,1004.99
2023-04-25T08:20:40.594Z,1005.00
2023-04-25T08:21:40.592Z,1005.04
2023-04-25T08:22:41.473Z,1005.07
2023-04-25T08:23:40.578Z,1005.07
2023-04-25T08:24:40.552Z,1005.07
2023-04-25T08:25:40.578Z,1005.07
2023-04-25T08:26:41.581Z,1005.08
2023-04-25T08:27:41.404Z,1005.10
2023-04-25T08:28:40.513Z,1005.12
2023-04-25T08:29:40.510Z,1005.15
2023-04-25T08:30:42.618Z,1005.16
2023-04-25T08:31:40.593Z,1005.19
2023-04-25T08:32:40.505Z,1005.22
2023-04-25T08:33:40.631Z,1005.23
2023-04-25T08:34:40.499Z,1005.25
2023-04-25T08:35:40.452Z,1005.28
2023-04-25T08:36:40.586Z,1005.29
2023-04-25T08:37:40.455Z,1005.26
2023-04-25T08:38:40.402Z,1005.23
2023-04-25T08:39:40.428Z,1005.22
2023-04-25T08:40:41.597Z,1005.22
2023-04-25T08:41:40.498Z,1005.23
2023-04-25T08:42:40.361Z,1005.22
2023-04-25T08:43:41.475Z,1005.25
2023-04-25T08:44:41.553Z,1005.30
2023-04-25T08:45:40.350Z,1005.35
2023-04-25T08:46:40.371Z,1005.38
2023-04-25T08:47:42.903Z,1005.42
2023-04-25T08:48:40.290Z,1005.45
2023-04-25T08:49:40.362Z,1005.46
2023-04-25T08:50:40.269Z,1005.46
2023-04-25T08:51:40.278Z,1005.51
2023-04-25T08:52:40.257Z,1005.56
2023-04-25T08:53:40.319Z,1005.56
2023-04-25T08:54:41.727Z,1005.59
2023-04-25T08:55:40.261Z,1005.63
2023-04-25T08:56:40.213Z,1005.63
2023-04-25T08:57:40.797Z,1005.65
2023-04-25T08:58:40.183Z,1005.67
2023-04-25T08:59:40.227Z,1005.73
2023-04-25T09:00:40.204Z,1005.71
2023-04-25T09:01:40.253Z,1005.70
2023-04-25T09:02:40.349Z,1005.75
2023-04-25T09:03:40.221Z,1005.74
2023-04-25T09:04:40.171Z,1005.74
2023-04-25T09:05:40.138Z,1005.75
2023-04-25T09:06:40.092Z,1005.76
2023-04-25T09:07:40.139Z,1005.75
2023-04-25T09:08:40.077Z,1005.75
2023-04-25T09:09:40.087Z,1005.76
2023-04-25T09:10:40.104Z,1005.77
2023-04-25T09:11:40.070Z,1005.82
2023-04-25T09:12:40.029Z,1005.79
2023-04-25T09:13:40.064Z,1005.81
2023-04-25T09:14:40.035Z,1005.84
2023-04-25T09:15:40.021Z,1005.85
2023-04-25T09:16:41.180Z,1005.87
2023-04-25T09:17:40.925Z,1005.86
2023-04-25T09:18:40.050Z,1005.86
2023-04-25T09:19:41.448Z,1005.87
2023-04-25T09:20:51.036Z,1005.91
2023-04-25T09:21:39.963Z,1005.93
2023-04-25T09:22:39.976Z,1005.91
2023-04-25T09:23:39.944Z,1005.95
2023-04-25T09:24:39.921Z,1006.00
2023-04-25T09:25:39.956Z,1005.98
2023-04-25T09:26:39.886Z,1005.99
2023-04-25T09:27:39.923Z,1006.01
2023-04-25T09:28:39.865Z,1006.04
2023-04-25T09:29:39.874Z,1006.05
2023-04-25T09:30:39.847Z,1006.07
2023-04-25T09:31:39.934Z,1006.09
2023-04-25T09:32:39.894Z,1006.11
2023-04-25T09:33:39.861Z,1006.11
2023-04-25T09:34:39.831Z,1006.15
2023-04-25T09:35:39.792Z,1006.17
2023-04-25T09:36:39.857Z,1006.18
2023-04-25T09:37:39.786Z,1006.18
2023-04-25T09:38:39.783Z,1006.19
2023-04-25T09:39:39.773Z,1006.16
2023-04-25T09:40:39.759Z,1006.20
2023-04-25T09:41:39.729Z,1006.30
2023-04-25T09:42:39.742Z,1006.29
2023-04-25T09:43:39.809Z,1006.33
2023-04-25T09:44:41.043Z,1006.33
2023-04-25T09:45:42.433Z,1006.36
2023-04-25T09:46:39.753Z,1006.34
2023-04-25T09:47:39.694Z,1006.36
2023-04-25T09:48:39.697Z,1006.38
2023-04-25T09:49:39.686Z,1006.37
2023-04-25T09:50:39.657Z,1006.37
2023-04-25T09:51:39.626Z,1006.38
2023-04-25T09:52:39.642Z,1006.36
2023-04-25T09:53:39.607Z,1006.35
2023-04-25T09:54:39.622Z,1006.34
2023-04-25T09:55:39.608Z,1006.34
2023-04-25T09:56:39.589Z,1006.35
2023-04-25T09:57:39.571Z,1006.34
2023-04-25T09:58:39.590Z,1006.33
2023-04-25T09:59:39.549Z,1006.34
2023-04-25T10:00:39.569Z,1006.36
2023-04-25T10:01:39.604Z,1006.34
2023-04-25T10:02:39.660Z,1006.36
2023-04-25T10:03:39.602Z,1006.37
2023-04-25T10:04:39.584Z,1006.37
2023-04-25T10:05:40.368Z,1006.38
2023-04-25T10:06:40.391Z,1006.38
2023-04-25T10:07:39.911Z,1006.40
2023-04-25T10:08:39.488Z,1006.39
2023-04-25T10:09:39.473Z,1006.35
2023-04-25T10:10:39.454Z,1006.36
2023-04-25T10:11:39.427Z,1006.33
2023-04-25T10:12:39.439Z,1006.29
2023-04-25T10:13:39.406Z,1006.27
2023-04-25T10:14:39.405Z,1006.21
2023-04-25T10:15:40.367Z,1006.21
2023-04-25T10:16:39.403Z,1006.22
2023-04-25T10:17:39.382Z,1006.20
2023-04-25T10:18:39.379Z,1006.18
2023-04-25T10:19:39.352Z,1006.15
2023-04-25T10:20:39.362Z,1006.15
2023-04-25T10:21:39.877Z,1006.13
2023-04-25T10:22:39.322Z,1006.07
2023-04-25T10:23:39.310Z,1006.08
2023-04-25T10:24:39.301Z,1006.05
2023-04-25T10:25:39.283Z,1006.04
2023-04-25T10:26:39.283Z,1006.01
2023-04-25T10:27:39.267Z,1005.98
2023-04-25T10:28:39.261Z,1006.00
2023-04-25T10:29:39.233Z,1006.05
2023-04-25T10:30:39.309Z,1006.06
2023-04-25T10:31:39.273Z,1006.06
2023-04-25T10:32:39.221Z,1006.07
2023-04-25T10:33:39.180Z,1006.05
2023-04-25T10:34:39.196Z,1006.12
2023-04-25T10:35:39.168Z,1006.20
2023-04-25T10:36:39.903Z,1006.19
2023-04-25T10:37:40.635Z,1006.24
2023-04-25T10:38:39.152Z,1006.29
2023-04-25T10:39:39.134Z,1006.29
2023-04-25T10:40:39.135Z,1006.31
2023-04-25T10:41:39.112Z,1006.32
2023-04-25T10:42:39.125Z,1006.32
2023-04-25T10:43:39.118Z,1006.33
2023-04-25T10:44:39.095Z,1006.36
2023-04-25T10:45:39.063Z,1006.40
2023-04-25T10:46:39.135Z,1006.37
2023-04-25T10:47:39.045Z,1006.43
2023-04-25T10:48:39.043Z,1006.46
2023-04-25T10:49:39.043Z,1006.43
2023-04-25T10:50:39.033Z,1006.44
2023-04-25T10:51:53.921Z,1006.45
2023-04-25T10:52:39.018Z,1006.47
2023-04-25T10:53:38.987Z,1006.49
2023-04-25T10:54:38.983Z,1006.48
2023-04-25T10:55:38.986Z,1006.43
2023-04-25T10:56:38.966Z,1006.49
2023-04-25T10:57:38.932Z,1006.50
2023-04-25T10:58:38.940Z,1006.49
2023-04-25T10:59:38.921Z,1006.48
2023-04-25T11:00:48.247Z,1006.52
2023-04-25T11:01:38.984Z,1006.55
2023-04-25T11:02:39.113Z,1006.54
2023-04-25T11:03:41.493Z,1006.55
2023-04-25T11:04:39.125Z,1006.57
2023-04-25T11:05:50.806Z,1006.59
2023-04-25T11:06:38.881Z,1006.60
2023-04-25T11:07:39.011Z,1006.57
2023-04-25T11:08:38.847Z,1006.61
2023-04-25T11:09:38.830Z,1006.62
2023-04-25T11:10:38.819Z,1006.63
2023-04-25T11:11:38.782Z,1006.61
2023-04-25T11:12:38.823Z,1006.61
2023-04-25T11:13:38.775Z,1006.61
2023-04-25T11:15:38.755Z,1006.65
2023-04-25T11:16:38.807Z,1006.62
2023-04-25T11:17:38.903Z,1006.66
2023-04-25T11:18:38.732Z,1006.67
2023-04-25T11:19:38.733Z,1006.65
2023-04-25T11:20:38.713Z,1006.65
2023-04-25T11:21:38.688Z,1006.66
2023-04-25T11:22:38.688Z,1006.66
2023-04-25T11:23:38.683Z,1006.67
2023-04-25T11:24:38.723Z,1006.65
2023-04-25T11:25:39.077Z,1006.66
2023-04-25T11:26:38.676Z,1006.66
2023-04-25T11:27:38.628Z,1006.66
2023-04-25T11:28:38.636Z,1006.65
2023-04-25T11:29:38.592Z,1006.64
2023-04-25T11:30:38.617Z,1006.67
2023-04-25T11:31:38.678Z,1006.66
2023-04-25T11:32:38.717Z,1006.60
2023-04-25T11:33:38.585Z,1006.59
2023-04-25T11:34:41.431Z,1006.57
2023-04-25T11:35:38.537Z,1006.55
2023-04-25T11:36:38.570Z,1006.53
2023-04-25T11:37:38.524Z,1006.53
2023-04-25T11:38:38.574Z,1006.55
2023-04-25T11:39:38.488Z,1006.51
2023-04-25T11:40:38.607Z,1006.45
2023-04-25T11:41:38.673Z,1006.40
2023-04-25T11:42:38.512Z,1006.42
2023-04-25T11:43:39.321Z,1006.38
2023-04-25T11:44:38.470Z,1006.39
2023-04-25T11:45:38.481Z,1006.44
2023-04-25T11:46:38.522Z,1006.42
2023-04-25T11:47:38.496Z,1006.39
2023-04-25T11:48:38.414Z,1006.42
2023-04-25T11:49:38.421Z,1006.43
2023-04-25T11:50:38.394Z,1006.41
2023-04-25T11:51:38.358Z,1006.47
2023-04-25T11:52:38.405Z,1006.52
2023-04-25T11:53:38.342Z,1006.53
2023-04-25T11:54:38.380Z,1006.53
2023-04-25T11:55:38.357Z,1006.52
2023-04-25T11:56:38.349Z,1006.43
2023-04-25T11:57:38.296Z,1006.42
2023-04-25T11:58:38.321Z,1006.39
2023-04-25T11:59:38.275Z,1006.34
2023-04-25T12:00:38.292Z,1006.36
2023-04-25T12:01:38.281Z,1006.34
2023-04-25T12:02:38.334Z,1006.32
2023-04-25T12:03:38.429Z,1006.35
2023-04-25T12:04:38.477Z,1006.30
2023-04-25T12:05:38.377Z,1006.29
2023-04-25T12:06:38.272Z,1006.35